Time;durP1;ratioP1;P1;durP2;ratioP2;P2;SDS_P1;SDS_P2;PMS_P1;PMS_P2;Temp;Humidity;BMP_temperature;BMP_pressure;BME280_temperature;BME280_humidity;BME280_pressure;Samples;Min_cycle;Max_cycle;Signal;HPM_P1;HPM_P2
2022/07/07 00:01:01;;;;;;;9.05;5.45;;;;;;;;;;4996410;28;20034;-63
2022/07/07 00:03:28;;;;;;;9.55;5.60;;;;;;;;;;4994810;28;20057;-63
2022/07/07 00:05:55;;;;;;;8.13;5.53;;;;;;;;;;4997728;28;20094;-63
2022/07/07 00:08:22;;;;;;;17.25;5.70;;;;;;;;;;4995221;28;21288;-57
2022/07/07 00:10:48;;;;;;;8.07;5.50;;;;;;;;;;4993854;28;20549;-61
2022/07/07 00:13:15;;;;;;;8.57;5.50;;;;;;;;;;4995240;28;20045;-61
2022/07/07 00:15:45;;;;;;;8.07;4.80;;;;;;;;;;4995064;28;20785;-62
2022/07/07 00:18:15;;;;;;;11.88;4.93;;;;;;;;;;4994918;28;20830;-63
2022/07/07 00:20:42;;;;;;;8.55;4.80;;;;;;;;;;4992332;28;20177;-63
2022/07/07 00:23:08;;;;;;;6.82;4.20;;;;;;;;;;4994583;28;20587;-64
2022/07/07 00:25:35;;;;;;;7.53;4.55;;;;;;;;;;4993885;28;20057;-64
2022/07/07 00:28:01;;;;;;;7.63;4.40;;;;;;;;;;4993332;28;21074;-64
2022/07/07 00:30:28;;;;;;;6.97;4.25;;;;;;;;;;4993511;28;20163;-64
2022/07/07 00:32:55;;;;;;;6.10;3.58;;;;;;;;;;4992996;28;20196;-63
2022/07/07 00:35:21;;;;;;;8.45;3.80;;;;;;;;;;4995017;28;20066;-64
2022/07/07 00:37:48;;;;;;;7.28;3.85;;;;;;;;;;4991823;28;20708;-63
2022/07/07 00:40:15;;;;;;;5.50;3.50;;;;;;;;;;5021282;28;20038;-64
2022/07/07 00:42:41;;;;;;;6.18;3.65;;;;;;;;;;5005796;28;20397;-64
2022/07/07 00:45:08;;;;;;;5.30;3.30;;;;;;;;;;4993812;28;20064;-65
2022/07/07 00:47:36;;;;;;;5.78;3.35;;;;;;;;;;4994723;28;20033;-65
2022/07/07 00:50:03;;;;;;;9.07;3.42;;;;;;;;;;4995367;28;20038;-65
2022/07/07 00:52:30;;;;;;;6.72;3.55;;;;;;;;;;4994072;28;20518;-65
2022/07/07 00:54:59;;;;;;;5.50;3.42;;;;;;;;;;4993716;28;20046;-65
2022/07/07 00:57:27;;;;;;;5.22;3.13;;;;;;;;;;4992893;28;20052;-64
2022/07/07 00:59:55;;;;;;;5.85;3.58;;;;;;;;;;4994305;28;20037;-66
2022/07/07 01:02:22;;;;;;;6.88;3.55;;;;;;;;;;4993254;28;20624;-65
2022/07/07 01:04:49;;;;;;;6.07;3.15;;;;;;;;;;4994266;28;20129;-64
2022/07/07 01:07:15;;;;;;;4.75;2.92;;;;;;;;;;4996218;28;20097;-65
2022/07/07 01:09:43;;;;;;;5.45;3.38;;;;;;;;;;4992206;28;21963;-65
2022/07/07 01:12:10;;;;;;;5.38;3.22;;;;;;;;;;4995089;28;20054;-65
2022/07/07 01:14:39;;;;;;;5.30;3.03;;;;;;;;;;4995968;28;20042;-65
2022/07/07 01:17:06;;;;;;;7.25;3.78;;;;;;;;;;4994359;28;20037;-63
2022/07/07 01:19:32;;;;;;;5.45;3.13;;;;;;;;;;4995771;28;20062;-64
2022/07/07 01:22:01;;;;;;;5.53;3.28;;;;;;;;;;4998010;28;20044;-64
2022/07/07 01:24:29;;;;;;;6.10;3.00;;;;;;;;;;4994050;28;20049;-65
2022/07/07 01:27:13;;;;;;;5.20;3.10;;;;;;;;;;4995717;28;20057;-64
2022/07/07 01:29:41;;;;;;;5.55;3.15;;;;;;;;;;4996633;28;20041;-65
2022/07/07 01:32:08;;;;;;;6.57;3.20;;;;;;;;;;4996550;28;20042;-64
2022/07/07 01:34:39;;;;;;;4.75;3.00;;;;;;;;;;5004790;28;20041;-64
2022/07/07 01:37:06;;;;;;;5.63;3.17;;;;;;;;;;4996117;28;20038;-64
2022/07/07 01:39:33;;;;;;;5.50;3.42;;;;;;;;;;4997194;28;20042;-64
2022/07/07 01:42:00;;;;;;;6.75;3.58;;;;;;;;;;4999770;28;20155;-64
2022/07/07 01:44:26;;;;;;;6.25;3.40;;;;;;;;;;4997841;28;20491;-65
2022/07/07 01:46:53;;;;;;;7.65;3.30;;;;;;;;;;4999183;28;20042;-65
2022/07/07 01:49:20;;;;;;;6.70;3.60;;;;;;;;;;4998208;28;20065;-65
2022/07/07 01:51:46;;;;;;;7.82;3.50;;;;;;;;;;4996344;28;20045;-64
2022/07/07 01:54:13;;;;;;;5.50;3.63;;;;;;;;;;4994048;28;20037;-64
2022/07/07 01:56:40;;;;;;;6.55;3.70;;;;;;;;;;4993841;28;20407;-65
2022/07/07 01:59:06;;;;;;;6.85;4.00;;;;;;;;;;4994117;28;20308;-65
2022/07/07 02:01:34;;;;;;;6.93;4.25;;;;;;;;;;4993011;28;20409;-64
2022/07/07 02:04:00;;;;;;;6.32;4.00;;;;;;;;;;5017422;28;20054;-65
2022/07/07 02:06:27;;;;;;;5.60;3.60;;;;;;;;;;5002891;28;20053;-66
2022/07/07 02:08:53;;;;;;;6.40;3.88;;;;;;;;;;5017096;28;21709;-64
2022/07/07 02:11:20;;;;;;;6.72;3.88;;;;;;;;;;5009580;28;20538;-65
2022/07/07 02:13:48;;;;;;;6.50;3.45;;;;;;;;;;5012301;28;20109;-65
2022/07/07 02:16:15;;;;;;;7.35;3.70;;;;;;;;;;4994721;28;20034;-64
2022/07/07 02:18:43;;;;;;;7.43;4.00;;;;;;;;;;4990908;28;20048;-65
2022/07/07 02:21:10;;;;;;;5.72;3.33;;;;;;;;;;4993297;28;20128;-65
2022/07/07 02:23:37;;;;;;;5.65;3.28;;;;;;;;;;4991871;28;20121;-64
2022/07/07 02:26:04;;;;;;;5.57;3.25;;;;;;;;;;4991988;28;20042;-65
2022/07/07 02:28:31;;;;;;;5.68;3.65;;;;;;;;;;4991893;28;20064;-65
2022/07/07 02:30:58;;;;;;;5.57;3.45;;;;;;;;;;4993066;28;20501;-64
2022/07/07 02:33:25;;;;;;;6.68;3.53;;;;;;;;;;4992683;28;20104;-64
2022/07/07 02:35:53;;;;;;;8.30;3.83;;;;;;;;;;5002362;28;20064;-64
2022/07/07 02:38:20;;;;;;;9.43;4.05;;;;;;;;;;4991575;28;20041;-64
2022/07/07 02:40:46;;;;;;;7.88;3.85;;;;;;;;;;5021082;28;20048;-64
2022/07/07 02:43:13;;;;;;;6.05;3.45;;;;;;;;;;5001188;28;20108;-65
2022/07/07 02:45:43;;;;;;;5.90;3.60;;;;;;;;;;4992688;28;20169;-65
2022/07/07 02:48:10;;;;;;;6.03;3.58;;;;;;;;;;4991113;28;20136;-65
2022/07/07 02:50:37;;;;;;;7.00;3.88;;;;;;;;;;4993197;28;20141;-66
2022/07/07 02:53:04;;;;;;;8.02;4.03;;;;;;;;;;4991563;28;20466;-65
2022/07/07 02:55:31;;;;;;;5.95;3.80;;;;;;;;;;4995021;28;20046;-64
2022/07/07 02:58:01;;;;;;;6.68;3.67;;;;;;;;;;4994366;28;20045;-63
2022/07/07 03:00:29;;;;;;;7.88;4.45;;;;;;;;;;4991709;28;20088;-62
2022/07/07 03:02:55;;;;;;;6.90;4.28;;;;;;;;;;4991619;28;20065;-64
2022/07/07 03:05:23;;;;;;;6.07;3.83;;;;;;;;;;4990600;28;20813;-64
2022/07/07 03:07:50;;;;;;;7.25;4.18;;;;;;;;;;5003797;28;20038;-64
2022/07/07 03:10:16;;;;;;;6.65;4.13;;;;;;;;;;5001193;28;20065;-63
2022/07/07 03:12:43;;;;;;;7.05;4.35;;;;;;;;;;4990962;28;20046;-64
2022/07/07 03:15:10;;;;;;;9.02;4.60;;;;;;;;;;4992915;28;20853;-65
2022/07/07 03:17:37;;;;;;;8.35;4.80;;;;;;;;;;4991258;28;20088;-63
2022/07/07 03:20:04;;;;;;;7.38;4.65;;;;;;;;;;5017428;28;20034;-65
2022/07/07 03:22:30;;;;;;;7.75;5.30;;;;;;;;;;5002332;28;20045;-64
2022/07/07 03:24:57;;;;;;;6.10;4.05;;;;;;;;;;4994677;28;20514;-65
2022/07/07 03:27:24;;;;;;;6.20;4.25;;;;;;;;;;4991950;28;20117;-62
2022/07/07 03:29:51;;;;;;;8.85;4.45;;;;;;;;;;4993471;28;20129;-64
2022/07/07 03:32:18;;;;;;;6.68;4.15;;;;;;;;;;4991720;28;20038;-63
2022/07/07 03:34:45;;;;;;;6.32;4.22;;;;;;;;;;5019290;28;20042;-62
2022/07/07 03:37:11;;;;;;;6.35;4.15;;;;;;;;;;4999195;28;20038;-61
2022/07/07 03:39:38;;;;;;;7.20;4.70;;;;;;;;;;4996338;28;20057;-62
2022/07/07 03:42:05;;;;;;;7.65;4.28;;;;;;;;;;4993186;28;20058;-62
2022/07/07 03:44:32;;;;;;;7.50;4.60;;;;;;;;;;4993823;28;20054;-62
2022/07/07 03:46:58;;;;;;;7.32;4.72;;;;;;;;;;4992835;28;20073;-62
2022/07/07 03:49:25;;;;;;;7.55;5.18;;;;;;;;;;4991439;28;20046;-63
2022/07/07 03:51:52;;;;;;;7.65;4.80;;;;;;;;;;4991518;28;20047;-62
2022/07/07 03:54:18;;;;;;;8.20;5.18;;;;;;;;;;4991727;28;20594;-63
2022/07/07 03:56:45;;;;;;;7.93;5.00;;;;;;;;;;4991296;28;20841;-62
2022/07/07 03:59:14;;;;;;;9.18;5.22;;;;;;;;;;4993450;28;20057;-63
2022/07/07 04:01:47;;;;;;;12.27;5.63;;;;;;;;;;4992103;28;20179;-64
2022/07/07 04:04:14;;;;;;;9.25;6.03;;;;;;;;;;4994684;28;20042;-63
2022/07/07 04:06:41;;;;;;;7.97;5.68;;;;;;;;;;4993650;28;20037;-63
2022/07/07 04:09:08;;;;;;;8.45;5.43;;;;;;;;;;4993153;28;20044;-62
2022/07/07 04:11:35;;;;;;;9.30;5.57;;;;;;;;;;4990819;28;20046;-63
2022/07/07 04:14:02;;;;;;;8.40;5.40;;;;;;;;;;4993580;28;20077;-63
2022/07/07 04:16:29;;;;;;;10.05;6.05;;;;;;;;;;4991104;28;20061;-63
2022/07/07 04:18:56;;;;;;;9.20;5.25;;;;;;;;;;4994196;28;20050;-64
2022/07/07 04:21:23;;;;;;;7.45;4.97;;;;;;;;;;4992095;28;20057;-65
2022/07/07 04:23:49;;;;;;;9.10;5.50;;;;;;;;;;4989026;28;20046;-67
2022/07/07 04:26:16;;;;;;;9.73;5.93;;;;;;;;;;5015647;28;20042;-67
2022/07/07 04:28:43;;;;;;;8.15;5.68;;;;;;;;;;5005289;28;20041;-64
2022/07/07 04:31:14;;;;;;;8.63;5.35;;;;;;;;;;4993844;28;20128;-62
2022/07/07 04:33:41;;;;;;;8.82;5.13;;;;;;;;;;4989971;28;20050;-63
2022/07/07 04:36:11;;;;;;;9.65;5.07;;;;;;;;;;4989138;28;20503;-62
2022/07/07 04:38:38;;;;;;;8.25;5.18;;;;;;;;;;4990310;28;20042;-64
2022/07/07 04:41:04;;;;;;;8.02;5.20;;;;;;;;;;4990410;28;20046;-64
2022/07/07 04:43:31;;;;;;;8.40;5.65;;;;;;;;;;5020781;28;20037;-62
2022/07/07 04:45:58;;;;;;;9.32;4.60;;;;;;;;;;5001002;28;20046;-63
2022/07/07 04:48:25;;;;;;;6.82;4.45;;;;;;;;;;4993098;28;20042;-63
2022/07/07 04:50:51;;;;;;;7.40;5.10;;;;;;;;;;4994107;28;20053;-62
2022/07/07 04:53:18;;;;;;;7.65;5.13;;;;;;;;;;4995306;28;20038;-63
2022/07/07 04:55:45;;;;;;;6.13;4.55;;;;;;;;;;5002015;28;20148;-62
2022/07/07 04:58:11;;;;;;;9.07;5.43;;;;;;;;;;4994093;28;20177;-63
2022/07/07 05:00:38;;;;;;;6.85;4.82;;;;;;;;;;4995832;28;20189;-64
2022/07/07 05:03:05;;;;;;;8.00;5.40;;;;;;;;;;4993232;28;20048;-64
2022/07/07 05:05:31;;;;;;;7.47;5.18;;;;;;;;;;4993424;28;20069;-65
2022/07/07 05:07:58;;;;;;;8.82;5.47;;;;;;;;;;4995279;28;20057;-64
2022/07/07 05:10:25;;;;;;;8.38;5.20;;;;;;;;;;5021930;28;20053;-64
2022/07/07 05:12:52;;;;;;;8.18;5.63;;;;;;;;;;5003476;28;20038;-64
2022/07/07 05:15:18;;;;;;;6.82;4.90;;;;;;;;;;4994420;28;20042;-64
2022/07/07 05:17:45;;;;;;;7.57;5.00;;;;;;;;;;4993138;28;20042;-63
2022/07/07 05:20:12;;;;;;;7.22;5.00;;;;;;;;;;4993902;28;20052;-63
2022/07/07 05:22:38;;;;;;;7.05;4.47;;;;;;;;;;4993640;28;20120;-63
2022/07/07 05:25:05;;;;;;;7.40;4.60;;;;;;;;;;4995802;28;20049;-63
2022/07/07 05:27:37;;;;;;;6.32;4.45;;;;;;;;;;4992851;28;20042;-64
2022/07/07 05:30:09;;;;;;;7.07;4.43;;;;;;;;;;4994647;28;20058;-64
2022/07/07 05:32:36;;;;;;;7.25;4.78;;;;;;;;;;4994210;28;20037;-62
2022/07/07 05:35:05;;;;;;;6.68;4.60;;;;;;;;;;5016363;28;20559;-63
2022/07/07 05:37:32;;;;;;;6.22;4.22;;;;;;;;;;4999501;28;20948;-63
2022/07/07 05:39:58;;;;;;;7.43;4.75;;;;;;;;;;4992585;28;20049;-63
2022/07/07 05:42:25;;;;;;;10.70;4.55;;;;;;;;;;4992536;28;20108;-63
2022/07/07 05:44:52;;;;;;;7.30;4.57;;;;;;;;;;4991601;28;20050;-63
2022/07/07 05:47:18;;;;;;;7.32;4.47;;;;;;;;;;4992869;28;20050;-64
2022/07/07 05:49:45;;;;;;;7.00;4.63;;;;;;;;;;4991932;28;20517;-64
2022/07/07 05:52:12;;;;;;;7.63;4.90;;;;;;;;;;4994362;28;20041;-63
2022/07/07 05:54:38;;;;;;;8.85;5.20;;;;;;;;;;4992029;28;20687;-63
2022/07/07 05:57:06;;;;;;;7.22;4.38;;;;;;;;;;4992499;28;20047;-63
2022/07/07 05:59:33;;;;;;;9.38;5.00;;;;;;;;;;4992276;28;20120;-63
2022/07/07 06:02:00;;;;;;;8.50;5.25;;;;;;;;;;4992601;28;20046;-64
2022/07/07 06:04:26;;;;;;;7.32;4.70;;;;;;;;;;4992903;28;20054;-64
2022/07/07 06:06:54;;;;;;;7.53;4.40;;;;;;;;;;4992458;28;20041;-65
2022/07/07 06:09:20;;;;;;;7.10;4.80;;;;;;;;;;4985146;28;20081;-64
2022/07/07 06:11:47;;;;;;;7.90;5.13;;;;;;;;;;4991840;28;20136;-64
2022/07/07 06:14:14;;;;;;;7.78;4.68;;;;;;;;;;4994346;28;20524;-64
2022/07/07 06:16:43;;;;;;;8.13;4.82;;;;;;;;;;5008467;28;20486;-64
2022/07/07 06:19:10;;;;;;;9.20;5.03;;;;;;;;;;5009177;28;20047;-64
2022/07/07 06:21:37;;;;;;;7.88;4.70;;;;;;;;;;4994056;28;20046;-63
2022/07/07 06:24:05;;;;;;;6.32;4.30;;;;;;;;;;4992954;28;20230;-65
2022/07/07 06:26:31;;;;;;;6.63;4.57;;;;;;;;;;4992849;28;20045;-63
2022/07/07 06:28:58;;;;;;;7.90;4.20;;;;;;;;;;4993968;28;20183;-64
2022/07/07 06:31:25;;;;;;;6.25;4.13;;;;;;;;;;4991938;28;20039;-63
2022/07/07 06:33:51;;;;;;;6.15;3.83;;;;;;;;;;4991675;28;20073;-64
2022/07/07 06:36:18;;;;;;;6.05;3.70;;;;;;;;;;4990916;28;22249;-64
2022/07/07 06:38:45;;;;;;;8.38;5.13;;;;;;;;;;4991381;28;20491;-64
2022/07/07 06:41:11;;;;;;;8.38;4.65;;;;;;;;;;4992409;28;20134;-63
2022/07/07 06:43:38;;;;;;;7.05;4.25;;;;;;;;;;4991352;28;20656;-65
2022/07/07 06:46:05;;;;;;;5.85;3.70;;;;;;;;;;4994216;28;20045;-64
2022/07/07 06:48:31;;;;;;;6.45;3.58;;;;;;;;;;4994997;28;20104;-64
2022/07/07 06:50:58;;;;;;;5.43;3.05;;;;;;;;;;4993640;28;20121;-63
2022/07/07 06:53:25;;;;;;;5.25;3.10;;;;;;;;;;4994016;28;20052;-63
2022/07/07 06:55:52;;;;;;;5.43;3.03;;;;;;;;;;4993024;28;20704;-63
2022/07/07 06:58:19;;;;;;;5.47;2.83;;;;;;;;;;4993398;28;20052;-62
2022/07/07 07:00:45;;;;;;;4.50;2.60;;;;;;;;;;4993471;28;20034;-62
2022/07/07 07:03:12;;;;;;;4.28;2.58;;;;;;;;;;4993769;28;20547;-62
2022/07/07 07:05:39;;;;;;;7.80;2.75;;;;;;;;;;4993648;28;20053;-62
2022/07/07 07:08:05;;;;;;;4.53;2.63;;;;;;;;;;4995924;28;20077;-62
2022/07/07 07:10:32;;;;;;;5.03;2.70;;;;;;;;;;4994486;28;20514;-62
2022/07/07 07:12:59;;;;;;;5.20;2.83;;;;;;;;;;4993639;28;20053;-62
2022/07/07 07:15:26;;;;;;;5.93;2.50;;;;;;;;;;4994917;28;20610;-63
2022/07/07 07:17:52;;;;;;;4.18;2.40;;;;;;;;;;4991631;28;20052;-63
2022/07/07 07:20:19;;;;;;;4.82;2.53;;;;;;;;;;4996480;28;20042;-64
2022/07/07 07:22:46;;;;;;;4.88;2.53;;;;;;;;;;4994671;28;20042;-62
2022/07/07 07:25:12;;;;;;;6.20;2.80;;;;;;;;;;4998218;28;20066;-63
2022/07/07 07:27:39;;;;;;;4.82;2.47;;;;;;;;;;4992470;28;20863;-62
2022/07/07 07:30:06;;;;;;;6.07;2.58;;;;;;;;;;4994132;28;20068;-63
2022/07/07 07:32:33;;;;;;;6.32;2.63;;;;;;;;;;4995302;28;20052;-62
2022/07/07 07:34:59;;;;;;;4.85;2.47;;;;;;;;;;4992710;28;20517;-63
2022/07/07 07:37:26;;;;;;;4.53;2.20;;;;;;;;;;4991705;28;20103;-61
2022/07/07 07:39:53;;;;;;;4.32;2.10;;;;;;;;;;4993798;28;20042;-62
2022/07/07 07:42:19;;;;;;;5.47;2.30;;;;;;;;;;4991340;28;20507;-62
2022/07/07 07:47:31;;;;;;;4.80;2.80;;;;;;;;;;4991741;28;20590;-63
2022/07/07 07:49:58;;;;;;;4.70;2.88;;;;;;;;;;4995299;28;21124;-63
2022/07/07 07:52:44;;;;;;;4.85;2.83;;;;;;;;;;5003790;28;20045;-63
2022/07/07 07:55:12;;;;;;;5.20;2.80;;;;;;;;;;5005429;28;20536;-63
2022/07/07 07:57:39;;;;;;;4.60;2.55;;;;;;;;;;5004212;28;20068;-62
2022/07/07 08:00:06;;;;;;;6.35;2.80;;;;;;;;;;5006425;28;20045;-63
2022/07/07 08:02:34;;;;;;;5.07;2.70;;;;;;;;;;5006141;28;20580;-63
2022/07/07 08:05:01;;;;;;;7.25;3.10;;;;;;;;;;5005101;28;20421;-62
2022/07/07 08:07:28;;;;;;;4.72;2.80;;;;;;;;;;5006607;28;20077;-62
2022/07/07 08:09:54;;;;;;;5.53;3.10;;;;;;;;;;5009102;28;20037;-64
2022/07/07 08:12:22;;;;;;;5.82;3.35;;;;;;;;;;5006295;28;20065;-63
2022/07/07 08:14:49;;;;;;;7.22;3.50;;;;;;;;;;5006474;28;20041;-62
2022/07/07 08:17:15;;;;;;;6.13;3.55;;;;;;;;;;5006636;28;20387;-64
2022/07/07 08:19:42;;;;;;;5.88;3.47;;;;;;;;;;5008775;28;20107;-63
2022/07/07 08:22:09;;;;;;;5.72;3.40;;;;;;;;;;5008899;28;20096;-63
2022/07/07 08:24:36;;;;;;;5.78;3.63;;;;;;;;;;5006163;28;20145;-62
2022/07/07 08:27:03;;;;;;;6.35;3.70;;;;;;;;;;4995506;28;20083;-62
2022/07/07 08:29:29;;;;;;;5.60;3.38;;;;;;;;;;4997514;28;20041;-63
2022/07/07 08:31:56;;;;;;;6.00;3.65;;;;;;;;;;4997965;28;21220;-63
2022/07/07 08:34:23;;;;;;;5.72;3.50;;;;;;;;;;4995295;28;20770;-63
2022/07/07 08:36:52;;;;;;;5.97;3.70;;;;;;;;;;4992949;28;20065;-67
2022/07/07 08:39:18;;;;;;;5.28;3.20;;;;;;;;;;4999955;28;20039;-66
2022/07/07 08:41:45;;;;;;;5.47;3.13;;;;;;;;;;4998365;28;20146;-66
2022/07/07 08:44:12;;;;;;;6.35;3.70;;;;;;;;;;4999584;28;20054;-65
2022/07/07 08:46:38;;;;;;;6.80;3.78;;;;;;;;;;4996407;28;20812;-66
2022/07/07 08:49:05;;;;;;;8.50;4.00;;;;;;;;;;5003882;28;20065;-64
2022/07/07 08:51:32;;;;;;;5.57;3.60;;;;;;;;;;4998733;28;20069;-66
2022/07/07 08:54:02;;;;;;;6.20;3.83;;;;;;;;;;5002319;28;20046;-67
2022/07/07 08:56:28;;;;;;;5.85;3.47;;;;;;;;;;4998523;28;20594;-65
2022/07/07 08:58:55;;;;;;;5.68;3.70;;;;;;;;;;4996349;28;20049;-65
2022/07/07 09:01:22;;;;;;;5.60;3.50;;;;;;;;;;4996898;28;20127;-67
2022/07/07 09:03:48;;;;;;;6.75;4.35;;;;;;;;;;4995027;28;20049;-67
2022/07/07 09:06:15;;;;;;;6.65;4.00;;;;;;;;;;4995377;28;20034;-66
2022/07/07 09:08:42;;;;;;;5.97;3.67;;;;;;;;;;4997394;28;20384;-65
2022/07/07 09:11:09;;;;;;;8.32;4.18;;;;;;;;;;4995539;28;20052;-66
2022/07/07 09:13:36;;;;;;;6.75;3.90;;;;;;;;;;4995376;28;20038;-66
2022/07/07 09:16:05;;;;;;;7.22;4.43;;;;;;;;;;4997706;28;20136;-66
2022/07/07 09:18:33;;;;;;;7.88;4.60;;;;;;;;;;4996421;28;20037;-66
2022/07/07 09:21:01;;;;;;;6.78;4.15;;;;;;;;;;4993721;28;21438;-66
2022/07/07 09:23:27;;;;;;;7.72;4.75;;;;;;;;;;5021465;28;20584;-66
2022/07/07 09:25:54;;;;;;;6.63;4.40;;;;;;;;;;5023455;28;20609;-66
2022/07/07 09:28:21;;;;;;;9.85;5.28;;;;;;;;;;5000970;28;20085;-66
2022/07/07 09:30:48;;;;;;;7.90;5.28;;;;;;;;;;5000745;28;20545;-66
2022/07/07 09:33:16;;;;;;;10.25;5.13;;;;;;;;;;4997470;28;20082;-66
2022/07/07 09:38:31;;;;;;;8.25;5.60;;;;;;;;;;5003751;28;20153;-67
2022/07/07 09:41:03;;;;;;;8.52;5.63;;;;;;;;;;5000643;28;20042;-66
2022/07/07 09:43:31;;;;;;;11.15;6.30;;;;;;;;;;4996414;28;20531;-66
2022/07/07 09:46:10;;;;;;;8.80;6.03;;;;;;;;;;4999073;28;20060;-66
2022/07/07 09:48:38;;;;;;;11.73;6.70;;;;;;;;;;5025457;28;20072;-66
2022/07/07 09:51:34;;;;;;;12.27;6.57;;;;;;;;;;4994446;28;20116;-64
2022/07/07 09:54:12;;;;;;;10.30;6.88;;;;;;;;;;4990814;28;20046;-65
2022/07/07 09:56:39;;;;;;;9.93;6.72;;;;;;;;;;4988023;28;20153;-65
2022/07/07 09:59:10;;;;;;;9.95;7.05;;;;;;;;;;4989036;28;20283;-64
2022/07/07 10:01:42;;;;;;;9.75;6.57;;;;;;;;;;4990156;28;20046;-64
2022/07/07 10:04:10;;;;;;;11.07;7.50;;;;;;;;;;4987898;28;20046;-65
2022/07/07 10:06:38;;;;;;;12.00;7.63;;;;;;;;;;4987158;28;20118;-65
2022/07/07 10:09:05;;;;;;;11.50;7.28;;;;;;;;;;4989764;28;20042;-65
2022/07/07 10:11:38;;;;;;;13.73;8.05;;;;;;;;;;4987721;28;20046;-65
2022/07/07 10:14:16;;;;;;;11.60;7.70;;;;;;;;;;4989403;28;21389;-65
2022/07/07 10:16:44;;;;;;;11.82;8.45;;;;;;;;;;4986278;28;20506;-65
2022/07/07 10:19:12;;;;;;;16.67;9.25;;;;;;;;;;4987883;28;20116;-65
2022/07/07 10:21:42;;;;;;;13.80;9.23;;;;;;;;;;4989187;28;20609;-65
2022/07/07 10:24:10;;;;;;;12.75;9.00;;;;;;;;;;4989445;28;20078;-66
2022/07/07 10:26:41;;;;;;;12.43;8.60;;;;;;;;;;4986987;28;20118;-65
2022/07/07 10:29:11;;;;;;;11.82;8.00;;;;;;;;;;4996308;28;20038;-66
2022/07/07 10:31:38;;;;;;;14.10;8.65;;;;;;;;;;4993442;28;20038;-64
2022/07/07 10:34:09;;;;;;;12.55;8.27;;;;;;;;;;4994478;28;20042;-65
2022/07/07 10:36:51;;;;;;;11.00;7.65;;;;;;;;;;4989317;28;20522;-64
2022/07/07 10:39:18;;;;;;;12.45;8.45;;;;;;;;;;4993978;28;20088;-64
2022/07/07 10:42:00;;;;;;;11.45;8.05;;;;;;;;;;4994754;28;20052;-65
2022/07/07 10:44:28;;;;;;;11.55;8.15;;;;;;;;;;4996191;28;20140;-65
2022/07/07 10:47:03;;;;;;;14.82;8.75;;;;;;;;;;4993925;28;20047;-66
2022/07/07 10:50:02;;;;;;;13.73;8.38;;;;;;;;;;4991673;28;20171;-65
2022/07/07 10:52:30;;;;;;;13.82;8.68;;;;;;;;;;4990087;28;20061;-64
2022/07/07 10:54:58;;;;;;;14.48;8.70;;;;;;;;;;4998716;28;20038;-64
2022/07/07 10:57:26;;;;;;;12.93;8.48;;;;;;;;;;4992681;28;20103;-64
2022/07/07 11:00:06;;;;;;;14.07;8.55;;;;;;;;;;4995050;28;20148;-64
2022/07/07 11:02:48;;;;;;;14.57;9.60;;;;;;;;;;4996509;28;20034;-64
2022/07/07 11:05:15;;;;;;;14.73;9.10;;;;;;;;;;5021765;28;20751;-65
2022/07/07 11:08:03;;;;;;;15.32;9.65;;;;;;;;;;5003413;28;20038;-64
2022/07/07 11:10:48;;;;;;;13.02;8.27;;;;;;;;;;4992344;28;20117;-66
2022/07/07 11:13:16;;;;;;;12.15;8.73;;;;;;;;;;4997740;28;20037;-66
2022/07/07 11:15:44;;;;;;;12.88;9.13;;;;;;;;;;4999618;28;20049;-66
2022/07/07 11:18:20;;;;;;;12.88;8.13;;;;;;;;;;4997172;28;20148;-65
2022/07/07 11:20:56;;;;;;;16.33;7.97;;;;;;;;;;4995418;28;20060;-65
2022/07/07 11:23:23;;;;;;;12.82;8.63;;;;;;;;;;4998361;28;20133;-64
2022/07/07 11:25:55;;;;;;;13.50;8.32;;;;;;;;;;4996868;28;20046;-65
2022/07/07 11:28:23;;;;;;;13.23;8.63;;;;;;;;;;4994653;28;20119;-65
2022/07/07 11:30:49;;;;;;;13.75;8.60;;;;;;;;;;4996622;28;20045;-65
2022/07/07 11:33:16;;;;;;;12.68;8.40;;;;;;;;;;4995737;28;20073;-65
2022/07/07 11:35:43;;;;;;;14.18;9.23;;;;;;;;;;4996806;28;20052;-66
2022/07/07 11:38:11;;;;;;;13.60;8.50;;;;;;;;;;4993964;28;20053;-65
2022/07/07 11:40:39;;;;;;;14.48;9.07;;;;;;;;;;5024231;28;20038;-66
2022/07/07 11:43:06;;;;;;;14.02;9.43;;;;;;;;;;5001013;28;20099;-65
2022/07/07 11:45:33;;;;;;;14.80;8.43;;;;;;;;;;4991501;28;20041;-65
2022/07/07 11:48:01;;;;;;;13.40;9.25;;;;;;;;;;4996370;28;20490;-66
2022/07/07 11:50:31;;;;;;;12.48;8.02;;;;;;;;;;4994223;28;20038;-65
2022/07/07 11:52:59;;;;;;;14.98;8.93;;;;;;;;;;4996178;28;20503;-65
2022/07/07 11:55:26;;;;;;;13.70;9.07;;;;;;;;;;4998652;28;20089;-66
2022/07/07 11:57:54;;;;;;;11.77;8.15;;;;;;;;;;4999264;28;20058;-65
2022/07/07 12:00:24;;;;;;;13.90;8.43;;;;;;;;;;5000033;28;20046;-66
2022/07/07 12:02:51;;;;;;;13.18;8.57;;;;;;;;;;5007798;28;20033;-66
2022/07/07 12:05:22;;;;;;;12.70;8.50;;;;;;;;;;4999218;28;20069;-64
2022/07/07 12:08:08;;;;;;;11.82;8.38;;;;;;;;;;4999956;28;20048;-64
2022/07/07 12:10:36;;;;;;;12.13;8.32;;;;;;;;;;5000557;28;20108;-64
2022/07/07 12:13:07;;;;;;;14.77;8.52;;;;;;;;;;4997433;28;20407;-64
2022/07/07 12:15:34;;;;;;;13.95;8.90;;;;;;;;;;4999884;28;20093;-64
2022/07/07 12:18:04;;;;;;;17.27;9.40;;;;;;;;;;4996264;28;20041;-64
2022/07/07 12:20:31;;;;;;;13.88;8.77;;;;;;;;;;4997462;28;20038;-65
2022/07/07 12:22:58;;;;;;;14.82;8.93;;;;;;;;;;4998007;28;20840;-63
2022/07/07 12:25:26;;;;;;;14.07;8.98;;;;;;;;;;4997483;28;20046;-64
2022/07/07 12:27:56;;;;;;;15.32;9.75;;;;;;;;;;5000477;28;20100;-64
2022/07/07 12:30:24;;;;;;;13.55;8.20;;;;;;;;;;5003519;28;20037;-64
2022/07/07 12:32:51;;;;;;;13.02;8.32;;;;;;;;;;5020157;28;20065;-62
2022/07/07 12:35:31;;;;;;;13.45;8.95;;;;;;;;;;5010265;28;20038;-64
2022/07/07 12:38:00;;;;;;;12.85;8.40;;;;;;;;;;5014002;28;20572;-64
2022/07/07 12:40:28;;;;;;;13.00;9.00;;;;;;;;;;5015058;28;20041;-65
2022/07/07 12:42:56;;;;;;;14.20;9.18;;;;;;;;;;5029725;28;20049;-64
2022/07/07 12:45:23;;;;;;;12.27;8.20;;;;;;;;;;5028296;28;20503;-65
2022/07/07 12:47:56;;;;;;;13.27;9.23;;;;;;;;;;5014734;28;20573;-66
2022/07/07 12:50:23;;;;;;;18.33;9.57;;;;;;;;;;5017864;28;20124;-64
2022/07/07 12:53:02;;;;;;;14.02;9.32;;;;;;;;;;5018658;28;20030;-65
2022/07/07 12:55:33;;;;;;;15.95;9.40;;;;;;;;;;5017674;28;20042;-65
2022/07/07 12:58:04;;;;;;;13.13;9.23;;;;;;;;;;5018275;28;20041;-66
2022/07/07 13:00:30;;;;;;;13.57;8.60;;;;;;;;;;5015825;28;21509;-65
2022/07/07 13:02:57;;;;;;;14.05;8.20;;;;;;;;;;5020040;28;20045;-63
2022/07/07 13:05:24;;;;;;;13.25;8.05;;;;;;;;;;5018828;28;20576;-62
2022/07/07 13:07:51;;;;;;;14.38;9.15;;;;;;;;;;5022192;28;20049;-62
2022/07/07 13:10:17;;;;;;;13.18;8.77;;;;;;;;;;5024686;28;20187;-62
2022/07/07 13:12:47;;;;;;;11.88;8.00;;;;;;;;;;5020710;28;20438;-62
2022/07/07 13:15:14;;;;;;;10.75;7.47;;;;;;;;;;5020570;28;20386;-62
2022/07/07 13:17:43;;;;;;;10.15;6.68;;;;;;;;;;5018022;28;20050;-64
2022/07/07 13:20:12;;;;;;;11.10;7.00;;;;;;;;;;5020441;28;20045;-64
2022/07/07 13:22:39;;;;;;;9.80;5.93;;;;;;;;;;5017293;28;20053;-63
2022/07/07 13:25:06;;;;;;;8.80;5.88;;;;;;;;;;5016345;28;20050;-64
2022/07/07 13:27:33;;;;;;;11.70;5.65;;;;;;;;;;5014459;28;20041;-64
2022/07/07 13:29:59;;;;;;;8.75;6.10;;;;;;;;;;5016242;28;20045;-64
2022/07/07 13:32:26;;;;;;;7.45;5.20;;;;;;;;;;5016891;28;20045;-63
2022/07/07 13:34:53;;;;;;;9.00;5.35;;;;;;;;;;5019234;28;20429;-64
2022/07/07 13:37:19;;;;;;;8.77;5.45;;;;;;;;;;5018097;28;20827;-64
2022/07/07 13:39:46;;;;;;;9.50;5.18;;;;;;;;;;5029197;28;20033;-64
2022/07/07 13:42:13;;;;;;;8.38;5.25;;;;;;;;;;5020125;28;20069;-64
2022/07/07 13:44:41;;;;;;;9.45;5.07;;;;;;;;;;5021914;28;20510;-64
2022/07/07 13:47:08;;;;;;;7.97;4.78;;;;;;;;;;5023215;28;20048;-63
2022/07/07 13:49:35;;;;;;;9.88;5.47;;;;;;;;;;5025003;28;20510;-63
2022/07/07 13:52:02;;;;;;;7.78;5.20;;;;;;;;;;5026530;28;20115;-64
2022/07/07 13:54:31;;;;;;;7.90;5.38;;;;;;;;;;5024394;28;20038;-64
2022/07/07 13:56:58;;;;;;;7.60;5.00;;;;;;;;;;5023610;28;20746;-64
2022/07/07 13:59:24;;;;;;;10.00;4.88;;;;;;;;;;5029586;28;20056;-66
2022/07/07 14:01:51;;;;;;;8.50;5.20;;;;;;;;;;5016190;28;20487;-64
2022/07/07 14:04:18;;;;;;;6.93;4.80;;;;;;;;;;5030351;28;20684;-65
2022/07/07 14:06:44;;;;;;;7.60;4.50;;;;;;;;;;5014551;28;20030;-64
2022/07/07 14:09:11;;;;;;;7.47;4.55;;;;;;;;;;5014785;28;20045;-65
2022/07/07 14:11:38;;;;;;;7.55;4.25;;;;;;;;;;5015673;28;20046;-65
2022/07/07 14:14:04;;;;;;;7.93;4.47;;;;;;;;;;5015980;28;20056;-64
2022/07/07 14:16:31;;;;;;;7.30;4.57;;;;;;;;;;5012650;28;20048;-64
2022/07/07 14:18:58;;;;;;;6.47;4.35;;;;;;;;;;5014580;28;20529;-64
2022/07/07 14:21:25;;;;;;;7.20;4.70;;;;;;;;;;5028346;28;20120;-64
2022/07/07 14:23:52;;;;;;;7.50;4.53;;;;;;;;;;5027471;28;20048;-65
2022/07/07 14:26:19;;;;;;;6.75;4.18;;;;;;;;;;5014999;28;20055;-65
2022/07/07 14:28:46;;;;;;;9.05;4.78;;;;;;;;;;5015780;28;20034;-65
2022/07/07 14:31:12;;;;;;;6.72;4.35;;;;;;;;;;5015425;28;20355;-65
2022/07/07 14:33:39;;;;;;;8.10;4.53;;;;;;;;;;5015535;28;20441;-65
2022/07/07 14:36:06;;;;;;;6.88;4.45;;;;;;;;;;5016260;28;20037;-64
2022/07/07 14:38:33;;;;;;;8.05;4.07;;;;;;;;;;5015625;28;20037;-65
2022/07/07 14:40:59;;;;;;;7.38;4.10;;;;;;;;;;5029037;28;20045;-65
2022/07/07 14:43:26;;;;;;;6.95;4.20;;;;;;;;;;5014125;28;20045;-65
2022/07/07 14:45:53;;;;;;;6.07;4.00;;;;;;;;;;5028349;28;20049;-65
2022/07/07 14:48:20;;;;;;;6.05;4.13;;;;;;;;;;5029772;28;20066;-65
2022/07/07 14:50:47;;;;;;;6.40;3.65;;;;;;;;;;5013159;28;20061;-65